Time;durP1;ratioP1;P1;durP2;ratioP2;P2;SDS_P1;SDS_P2;PMS_P1;PMS_P2;Temp;Humidity;BMP_temperature;BMP_pressure;BME280_temperature;BME280_humidity;BME280_pressure;Samples;Min_cycle;Max_cycle;Signal;HPM_P1;HPM_P2
2023/09/14 00:01:13;;;;;;;;;;;11.90;99.90;;;;;;4952337;28;19955;-31
2023/09/14 00:03:40;;;;;;;;;;;11.90;99.90;;;;;;4951282;28;19960;-31
2023/09/14 00:06:06;;;;;;;;;;;11.90;99.90;;;;;;4952139;28;19974;-31
2023/09/14 00:08:34;;;;;;;;;;;11.90;99.90;;;;;;4941082;29;19933;-32
2023/09/14 00:11:03;;;;;;;;;;;11.80;99.90;;;;;;4952325;28;19931;-31
2023/09/14 00:13:30;;;;;;;;;;;11.90;99.90;;;;;;4950009;28;20382;-30
2023/09/14 00:15:56;;;;;;;;;;;11.80;99.90;;;;;;4952538;28;19941;-30
2023/09/14 00:18:23;;;;;;;;;;;11.80;99.90;;;;;;4952236;29;19934;-31
2023/09/14 00:20:52;;;;;;;;;;;11.80;99.90;;;;;;4951718;29;19993;-31
2023/09/14 00:23:19;;;;;;;;;;;11.80;99.90;;;;;;4951350;28;19933;-30
2023/09/14 00:25:47;;;;;;;;;;;11.70;99.90;;;;;;4952006;28;19976;-30
2023/09/14 00:28:13;;;;;;;;;;;11.70;99.90;;;;;;4950511;28;20001;-30
2023/09/14 00:30:40;;;;;;;;;;;11.70;99.90;;;;;;4951157;28;19966;-31
2023/09/14 00:33:08;;;;;;;;;;;11.60;99.90;;;;;;4949934;28;20714;-31
2023/09/14 00:35:34;;;;;;;;;;;11.60;99.90;;;;;;4950719;28;20383;-30
2023/09/14 00:38:01;;;;;;;;;;;11.60;99.90;;;;;;4952019;29;20082;-31
2023/09/14 00:40:28;;;;;;;;;;;11.60;99.90;;;;;;4950881;28;19926;-31
2023/09/14 00:42:56;;;;;;;;;;;11.60;99.90;;;;;;4950899;28;19930;-31
2023/09/14 00:45:23;;;;;;;;;;;11.60;99.90;;;;;;4952249;28;19934;-31
2023/09/14 00:47:50;;;;;;;;;;;11.50;99.90;;;;;;4889637;28;1884847;-31
2023/09/14 00:50:17;;;;;;;;;;;11.50;99.90;;;;;;4954742;28;19937;-31
2023/09/14 00:52:44;;;;;;;;;;;11.50;99.90;;;;;;4954423;29;20298;-31
2023/09/14 00:55:11;;;;;;;;;;;11.50;99.90;;;;;;4956519;28;20008;-32
2023/09/14 00:57:38;;;;;;;;;;;11.50;99.90;;;;;;4956299;29;19930;-30
2023/09/14 01:00:10;;;;;;;;;;;11.40;99.90;;;;;;4956185;29;19961;-31
2023/09/14 01:02:37;;;;;;;;;;;11.40;99.90;;;;;;4953531;28;20358;-32
2023/09/14 01:05:04;;;;;;;;;;;11.40;99.90;;;;;;4952519;28;20379;-31
2023/09/14 01:07:31;;;;;;;;;;;11.40;99.90;;;;;;4955636;29;20315;-31
2023/09/14 01:09:58;;;;;;;;;;;11.40;99.90;;;;;;4950232;28;20402;-31
2023/09/14 01:12:25;;;;;;;;;;;11.40;99.90;;;;;;4955870;29;19926;-31
2023/09/14 01:14:52;;;;;;;;;;;11.40;99.90;;;;;;4955317;29;20525;-30
2023/09/14 01:17:22;;;;;;;;;;;11.30;99.90;;;;;;4940192;29;19997;-32
2023/09/14 01:19:50;;;;;;;;;;;11.30;99.90;;;;;;4953425;28;19954;-33
2023/09/14 01:22:21;;;;;;;;;;;11.30;99.90;;;;;;4956190;29;20283;-31
2023/09/14 01:24:51;;;;;;;;;;;11.30;99.90;;;;;;4939378;29;19926;-31
2023/09/14 01:27:20;;;;;;;;;;;11.30;99.90;;;;;;4954290;28;19939;-31
2023/09/14 01:29:47;;;;;;;;;;;11.20;99.90;;;;;;4955264;28;19974;-31
2023/09/14 01:32:14;;;;;;;;;;;11.20;99.90;;;;;;4954656;28;19934;-31
2023/09/14 01:34:40;;;;;;;;;;;11.20;99.90;;;;;;4954297;29;20017;-30
2023/09/14 01:37:07;;;;;;;;;;;11.20;99.90;;;;;;4955159;28;19937;-30
2023/09/14 01:39:34;;;;;;;;;;;11.20;99.90;;;;;;4955334;29;19946;-31
2023/09/14 01:42:01;;;;;;;;;;;11.10;99.90;;;;;;4954503;29;19944;-32
2023/09/14 01:44:29;;;;;;;;;;;11.10;99.90;;;;;;4955173;29;19927;-31
2023/09/14 01:46:55;;;;;;;;;;;11.10;99.90;;;;;;4938365;29;19927;-31
2023/09/14 01:49:22;;;;;;;;;;;11.20;99.90;;;;;;4954945;28;19960;-30
2023/09/14 01:51:49;;;;;;;;;;;11.10;99.90;;;;;;4954946;29;19944;-31
2023/09/14 01:54:16;;;;;;;;;;;11.20;99.90;;;;;;4954808;28;20399;-32
2023/09/14 01:56:42;;;;;;;;;;;11.10;99.90;;;;;;4956025;29;19944;-32
2023/09/14 01:59:09;;;;;;;;;;;11.10;99.90;;;;;;4953952;28;20022;-31
2023/09/14 02:01:37;;;;;;;;;;;11.10;99.90;;;;;;4954209;28;19988;-31
2023/09/14 02:04:04;;;;;;;;;;;11.10;99.90;;;;;;4943417;29;19926;-31
2023/09/14 02:06:30;;;;;;;;;;;11.00;99.90;;;;;;4952308;28;20380;-31
2023/09/14 02:08:57;;;;;;;;;;;11.00;99.90;;;;;;4953477;28;19960;-31
2023/09/14 02:11:24;;;;;;;;;;;11.00;99.90;;;;;;4949927;29;19948;-31
2023/09/14 02:13:50;;;;;;;;;;;11.00;99.90;;;;;;4954455;29;20318;-31
2023/09/14 02:16:17;;;;;;;;;;;11.00;99.90;;;;;;4954779;29;19926;-31
2023/09/14 02:18:45;;;;;;;;;;;11.00;99.90;;;;;;4954195;28;19968;-31
2023/09/14 02:21:12;;;;;;;;;;;10.90;99.90;;;;;;4955266;28;20392;-31
2023/09/14 02:23:39;;;;;;;;;;;10.90;99.90;;;;;;4952933;28;19962;-32
2023/09/14 02:26:06;;;;;;;;;;;10.90;99.90;;;;;;4938283;29;20382;-31
2023/09/14 02:28:32;;;;;;;;;;;10.90;99.90;;;;;;4954400;28;19952;-31
2023/09/14 02:30:59;;;;;;;;;;;10.90;99.90;;;;;;4952953;29;19926;-31
2023/09/14 02:33:26;;;;;;;;;;;10.90;99.90;;;;;;4952414;28;19927;-32
2023/09/14 02:35:54;;;;;;;;;;;10.90;99.90;;;;;;4939383;29;19978;-31
2023/09/14 02:38:22;;;;;;;;;;;10.80;99.90;;;;;;4949124;28;19940;-31
2023/09/14 02:40:48;;;;;;;;;;;10.80;99.90;;;;;;4952153;29;20139;-33
2023/09/14 02:43:15;;;;;;;;;;;10.80;99.90;;;;;;4954415;28;20443;-31
2023/09/14 02:45:42;;;;;;;;;;;10.80;99.90;;;;;;4937948;29;19934;-32
2023/09/14 02:48:08;;;;;;;;;;;10.80;99.90;;;;;;4952832;28;20444;-30
2023/09/14 02:50:35;;;;;;;;;;;10.70;99.90;;;;;;4952425;28;19956;-30
2023/09/14 02:53:03;;;;;;;;;;;10.70;99.90;;;;;;4954047;29;19934;-32
2023/09/14 02:55:30;;;;;;;;;;;10.70;99.90;;;;;;4954681;28;19940;-31
2023/09/14 02:57:57;;;;;;;;;;;10.70;99.90;;;;;;4951927;28;20405;-31
2023/09/14 03:00:23;;;;;;;;;;;10.60;99.90;;;;;;4952357;29;19930;-31
2023/09/14 03:02:51;;;;;;;;;;;10.60;99.90;;;;;;4953196;28;19941;-31
2023/09/14 03:05:18;;;;;;;;;;;10.60;99.90;;;;;;4954248;28;19968;-30
2023/09/14 03:07:45;;;;;;;;;;;10.60;99.90;;;;;;4952903;28;20408;-31
2023/09/14 03:10:13;;;;;;;;;;;10.60;99.90;;;;;;4951268;28;19927;-31
2023/09/14 03:12:39;;;;;;;;;;;10.50;99.90;;;;;;4952233;29;20284;-31
2023/09/14 03:15:06;;;;;;;;;;;10.50;99.90;;;;;;4950524;28;20442;-30
2023/09/14 03:17:33;;;;;;;;;;;10.50;99.90;;;;;;4934241;29;19968;-31
2023/09/14 03:20:00;;;;;;;;;;;10.50;99.90;;;;;;4933889;29;20000;-31
2023/09/14 03:22:26;;;;;;;;;;;10.50;99.90;;;;;;4936864;29;19947;-31
2023/09/14 03:24:53;;;;;;;;;;;10.50;99.90;;;;;;4953552;29;20434;-31
2023/09/14 03:27:21;;;;;;;;;;;10.50;99.90;;;;;;4951671;28;19939;-31
2023/09/14 03:29:48;;;;;;;;;;;10.40;99.90;;;;;;4936904;29;19968;-33
2023/09/14 03:32:15;;;;;;;;;;;10.40;99.90;;;;;;4952559;29;19948;-31
2023/09/14 03:34:41;;;;;;;;;;;10.40;99.90;;;;;;4953261;29;19956;-31
2023/09/14 03:37:08;;;;;;;;;;;10.40;99.90;;;;;;4953311;28;20310;-31
2023/09/14 03:39:35;;;;;;;;;;;10.40;99.90;;;;;;4951548;28;20378;-33
2023/09/14 03:42:01;;;;;;;;;;;10.40;99.90;;;;;;4953543;28;19938;-31
2023/09/14 03:44:29;;;;;;;;;;;10.30;99.90;;;;;;4947184;28;19934;-32
2023/09/14 03:46:56;;;;;;;;;;;10.30;99.90;;;;;;4950493;28;20293;-31
2023/09/14 03:49:23;;;;;;;;;;;10.30;99.90;;;;;;4951834;29;20308;-31
2023/09/14 03:51:49;;;;;;;;;;;10.30;99.90;;;;;;4952797;28;20344;-32
2023/09/14 03:54:16;;;;;;;;;;;10.30;99.90;;;;;;4951272;28;19933;-31
2023/09/14 03:56:43;;;;;;;;;;;10.30;99.90;;;;;;4953473;28;20433;-32
2023/09/14 03:59:09;;;;;;;;;;;10.20;99.90;;;;;;4951042;28;20318;-31
2023/09/14 04:01:37;;;;;;;;;;;10.20;99.90;;;;;;4936542;29;19934;-32
2023/09/14 04:04:04;;;;;;;;;;;10.20;99.90;;;;;;4943910;28;20484;-31
2023/09/14 04:06:31;;;;;;;;;;;10.10;99.90;;;;;;4932534;29;19946;-31
2023/09/14 04:08:58;;;;;;;;;;;10.20;99.90;;;;;;4953212;28;19962;-31
2023/09/14 04:11:25;;;;;;;;;;;10.20;99.90;;;;;;4949518;28;19941;-31
2023/09/14 04:13:51;;;;;;;;;;;10.10;99.90;;;;;;4954183;29;20378;-31
2023/09/14 04:16:18;;;;;;;;;;;10.10;99.90;;;;;;4952156;28;19926;-30
2023/09/14 04:18:46;;;;;;;;;;;10.10;99.90;;;;;;4951303;28;19944;-31
2023/09/14 04:21:13;;;;;;;;;;;10.10;99.90;;;;;;4932225;29;19938;-32
2023/09/14 04:23:39;;;;;;;;;;;10.00;99.90;;;;;;4939419;29;19943;-32
2023/09/14 04:26:06;;;;;;;;;;;10.00;99.90;;;;;;4953727;28;19937;-31
2023/09/14 04:28:33;;;;;;;;;;;10.00;99.90;;;;;;4956092;28;20287;-32
2023/09/14 04:31:01;;;;;;;;;;;10.00;99.90;;;;;;4955527;28;21969;-31
2023/09/14 04:33:29;;;;;;;;;;;10.00;99.90;;;;;;4956606;28;19959;-31
2023/09/14 04:35:57;;;;;;;;;;;10.00;99.90;;;;;;4956798;29;19933;-32
2023/09/14 04:38:24;;;;;;;;;;;10.00;99.90;;;;;;4955804;28;19973;-32
2023/09/14 04:40:51;;;;;;;;;;;10.00;99.90;;;;;;4949463;28;20377;-31
2023/09/14 04:43:17;;;;;;;;;;;10.00;99.90;;;;;;4930331;29;19992;-31
2023/09/14 04:45:45;;;;;;;;;;;9.90;99.90;;;;;;4954482;29;20354;-31
2023/09/14 04:48:12;;;;;;;;;;;9.90;99.90;;;;;;4955695;28;19970;-31
2023/09/14 04:50:38;;;;;;;;;;;9.90;99.90;;;;;;4954337;28;19927;-32
2023/09/14 04:53:06;;;;;;;;;;;9.90;99.90;;;;;;4951679;28;19938;-32
2023/09/14 04:55:33;;;;;;;;;;;9.90;99.90;;;;;;4954244;28;19971;-31
2023/09/14 04:58:00;;;;;;;;;;;9.90;99.90;;;;;;4951562;28;19989;-31
2023/09/14 05:00:27;;;;;;;;;;;9.80;99.90;;;;;;4954495;28;19947;-33
2023/09/14 05:02:53;;;;;;;;;;;9.80;99.90;;;;;;4948946;28;19950;-32
2023/09/14 05:05:20;;;;;;;;;;;9.90;99.90;;;;;;4954112;28;19935;-31
2023/09/14 05:07:46;;;;;;;;;;;9.80;99.90;;;;;;4925525;29;19984;-34
2023/09/14 05:10:16;;;;;;;;;;;9.80;99.90;;;;;;4954633;29;20449;-33
2023/09/14 05:12:42;;;;;;;;;;;9.80;99.90;;;;;;4954021;28;20310;-32
2023/09/14 05:15:09;;;;;;;;;;;9.80;99.90;;;;;;4954978;28;19962;-33
2023/09/14 05:17:36;;;;;;;;;;;9.80;99.90;;;;;;4953931;28;20391;-32
2023/09/14 05:20:06;;;;;;;;;;;9.80;99.90;;;;;;4953639;29;19987;-32
2023/09/14 05:22:33;;;;;;;;;;;9.80;99.90;;;;;;4953924;28;19961;-32
2023/09/14 05:24:59;;;;;;;;;;;9.70;99.90;;;;;;4936568;28;20385;-32
2023/09/14 05:27:27;;;;;;;;;;;9.80;99.90;;;;;;4937334;28;19998;-32
2023/09/14 05:29:54;;;;;;;;;;;9.80;99.90;;;;;;4952516;29;19961;-32
2023/09/14 05:32:21;;;;;;;;;;;9.80;99.90;;;;;;4952723;28;19930;-31
2023/09/14 05:34:47;;;;;;;;;;;9.80;99.90;;;;;;4955849;28;19948;-32
2023/09/14 05:37:14;;;;;;;;;;;9.80;99.90;;;;;;4952213;29;20033;-32
2023/09/14 05:39:41;;;;;;;;;;;9.80;99.90;;;;;;4954055;28;19966;-32
2023/09/14 05:42:07;;;;;;;;;;;9.80;99.90;;;;;;4953038;29;19933;-32
2023/09/14 05:44:35;;;;;;;;;;;9.80;99.90;;;;;;4956824;29;19973;-32
2023/09/14 05:47:02;;;;;;;;;;;9.80;99.90;;;;;;4953663;28;19963;-31
2023/09/14 05:49:29;;;;;;;;;;;9.80;99.90;;;;;;4955289;29;20461;-32
2023/09/14 05:51:55;;;;;;;;;;;9.80;99.90;;;;;;4948507;28;20051;-32
2023/09/14 05:54:22;;;;;;;;;;;9.90;99.90;;;;;;4952095;28;20224;-32
2023/09/14 05:56:49;;;;;;;;;;;9.90;99.90;;;;;;4954409;29;19999;-32
2023/09/14 05:59:16;;;;;;;;;;;9.90;99.90;;;;;;4952634;28;20389;-32
2023/09/14 06:01:44;;;;;;;;;;;9.90;99.90;;;;;;4948567;28;20369;-31
2023/09/14 06:04:11;;;;;;;;;;;9.90;99.90;;;;;;4951947;28;20343;-32
2023/09/14 06:06:38;;;;;;;;;;;10.00;99.90;;;;;;4953409;28;19941;-32
2023/09/14 06:09:05;;;;;;;;;;;10.00;99.90;;;;;;4956039;29;19974;-32
2023/09/14 06:11:32;;;;;;;;;;;10.00;99.90;;;;;;4939150;29;19948;-32
2023/09/14 06:13:58;;;;;;;;;;;10.10;99.90;;;;;;4939481;29;19949;-33
2023/09/14 06:16:25;;;;;;;;;;;10.10;99.90;;;;;;4956161;29;20024;-31
2023/09/14 06:18:53;;;;;;;;;;;10.10;99.90;;;;;;4938865;29;19991;-32
2023/09/14 06:21:20;;;;;;;;;;;10.20;99.90;;;;;;4955925;29;19972;-32
2023/09/14 06:23:46;;;;;;;;;;;10.20;99.90;;;;;;4953775;29;19927;-32
2023/09/14 06:26:13;;;;;;;;;;;10.30;99.90;;;;;;4956098;29;19944;-32
2023/09/14 06:28:40;;;;;;;;;;;10.30;99.90;;;;;;4939422;29;19974;-32
2023/09/14 06:31:07;;;;;;;;;;;10.40;99.90;;;;;;4955099;29;19941;-32
2023/09/14 06:33:33;;;;;;;;;;;10.50;99.90;;;;;;4955640;29;20395;-32
2023/09/14 06:36:01;;;;;;;;;;;10.60;99.90;;;;;;4955755;29;20353;-33
2023/09/14 06:38:28;;;;;;;;;;;10.70;99.90;;;;;;4955891;29;20375;-32
2023/09/14 06:40:55;;;;;;;;;;;10.80;99.90;;;;;;4954897;29;19941;-31
2023/09/14 06:43:22;;;;;;;;;;;10.80;99.90;;;;;;4954929;28;20326;-31
2023/09/14 06:45:49;;;;;;;;;;;11.00;99.90;;;;;;4954040;29;19927;-32
2023/09/14 06:48:15;;;;;;;;;;;11.00;99.90;;;;;;4954263;29;19931;-31
2023/09/14 06:50:42;;;;;;;;;;;11.10;99.90;;;;;;4954631;29;20042;-31
2023/09/14 06:53:10;;;;;;;;;;;11.20;99.90;;;;;;4955520;29;19933;-31
2023/09/14 06:55:38;;;;;;;;;;;11.30;99.90;;;;;;4955430;29;19968;-32
2023/09/14 06:58:04;;;;;;;;;;;11.40;99.90;;;;;;4954799;29;19945;-34
2023/09/14 07:00:32;;;;;;;;;;;11.60;99.90;;;;;;4953654;29;20377;-32
2023/09/14 07:02:59;;;;;;;;;;;11.70;99.90;;;;;;4954471;29;19941;-32
2023/09/14 07:05:26;;;;;;;;;;;11.80;99.90;;;;;;4937356;28;20377;-31
2023/09/14 07:07:53;;;;;;;;;;;12.00;99.90;;;;;;4954314;29;20000;-31
2023/09/14 07:10:21;;;;;;;;;;;12.10;99.90;;;;;;4955053;29;20402;-31
2023/09/14 07:12:48;;;;;;;;;;;12.20;99.90;;;;;;4950578;29;19927;-30
2023/09/14 07:15:15;;;;;;;;;;;12.40;99.90;;;;;;4970119;28;19956;-31
2023/09/14 07:17:42;;;;;;;;;;;12.60;99.90;;;;;;4954470;29;19982;-31
2023/09/14 07:20:09;;;;;;;;;;;12.70;99.90;;;;;;4953795;29;19941;-31
2023/09/14 07:22:37;;;;;;;;;;;12.90;99.90;;;;;;4955099;29;20042;-32
2023/09/14 07:25:05;;;;;;;;;;;13.00;99.90;;;;;;4955163;29;20421;-31
2023/09/14 07:27:33;;;;;;;;;;;13.20;99.90;;;;;;4954758;29;20454;-31
2023/09/14 07:30:00;;;;;;;;;;;13.30;99.90;;;;;;4955028;29;20011;-31
2023/09/14 07:32:26;;;;;;;;;;;13.50;99.90;;;;;;4954665;29;19927;-31
2023/09/14 07:34:57;;;;;;;;;;;13.60;99.90;;;;;;4953364;29;19962;-31
2023/09/14 07:37:23;;;;;;;;;;;13.70;99.90;;;;;;4954960;29;19985;-31
2023/09/14 07:39:50;;;;;;;;;;;13.80;99.90;;;;;;4953708;29;19926;-32
2023/09/14 07:42:17;;;;;;;;;;;13.90;99.90;;;;;;4954745;29;19972;-31
2023/09/14 07:44:45;;;;;;;;;;;14.10;99.90;;;;;;4953657;29;19941;-31
2023/09/14 07:47:11;;;;;;;;;;;14.20;99.90;;;;;;4953310;29;19977;-30
2023/09/14 07:49:38;;;;;;;;;;;14.40;99.90;;;;;;4953451;29;20472;-31
2023/09/14 07:52:05;;;;;;;;;;;14.50;99.90;;;;;;4954389;29;20317;-30
2023/09/14 07:54:34;;;;;;;;;;;14.70;99.90;;;;;;4954565;29;19939;-31
2023/09/14 07:57:01;;;;;;;;;;;14.90;99.90;;;;;;4953422;28;19945;-31
2023/09/14 07:59:28;;;;;;;;;;;15.00;99.90;;;;;;4953529;29;19933;-32
2023/09/14 08:01:56;;;;;;;;;;;15.20;99.90;;;;;;4954225;29;19926;-32
2023/09/14 08:04:22;;;;;;;;;;;15.30;99.90;;;;;;4954361;29;20011;-32
2023/09/14 08:06:49;;;;;;;;;;;15.40;99.90;;;;;;4937465;29;19941;-32
2023/09/14 08:09:16;;;;;;;;;;;15.60;99.90;;;;;;4937149;29;19938;-32
2023/09/14 08:11:42;;;;;;;;;;;15.70;99.90;;;;;;4953611;28;19933;-31
2023/09/14 08:14:09;;;;;;;;;;;15.80;99.90;;;;;;4954310;29;20025;-32
2023/09/14 08:16:36;;;;;;;;;;;16.00;99.90;;;;;;4952557;29;19939;-32
2023/09/14 08:19:04;;;;;;;;;;;16.10;99.90;;;;;;4952810;29;19948;-32
2023/09/14 08:21:31;;;;;;;;;;;16.20;99.90;;;;;;4937493;29;20325;-32
2023/09/14 08:23:57;;;;;;;;;;;16.30;99.90;;;;;;4954160;29;19937;-32
2023/09/14 08:26:24;;;;;;;;;;;16.40;99.90;;;;;;4954250;29;20019;-33
2023/09/14 08:28:51;;;;;;;;;;;16.50;99.90;;;;;;4953311;29;19926;-32
2023/09/14 08:31:18;;;;;;;;;;;16.60;99.90;;;;;;4954161;29;20309;-32
2023/09/14 08:33:44;;;;;;;;;;;16.70;99.90;;;;;;4953984;29;19927;-32
2023/09/14 08:36:12;;;;;;;;;;;16.80;99.90;;;;;;4942410;28;19964;-32
2023/09/14 08:38:39;;;;;;;;;;;16.90;99.90;;;;;;4935083;29;19930;-32
2023/09/14 08:41:08;;;;;;;;;;;17.00;99.90;;;;;;4934041;29;19945;-31
2023/09/14 08:43:35;;;;;;;;;;;17.20;99.90;;;;;;4918275;29;19997;-31
2023/09/14 08:46:01;;;;;;;;;;;17.30;99.90;;;;;;4918127;29;19941;-32
2023/09/14 08:48:29;;;;;;;;;;;17.40;99.90;;;;;;4918094;29;19972;-32
2023/09/14 08:50:56;;;;;;;;;;;17.40;99.90;;;;;;4933725;29;20383;-33
2023/09/14 08:53:24;;;;;;;;;;;17.50;99.90;;;;;;4925079;29;20024;-31
2023/09/14 08:55:51;;;;;;;;;;;17.60;99.90;;;;;;4932570;29;19926;-32
2023/09/14 08:58:18;;;;;;;;;;;17.70;99.90;;;;;;4953184;29;19945;-31
2023/09/14 09:00:44;;;;;;;;;;;17.80;99.90;;;;;;4952735;29;19964;-32
2023/09/14 09:03:12;;;;;;;;;;;17.90;99.90;;;;;;4952015;28;19959;-31
2023/09/14 09:05:38;;;;;;;;;;;18.00;99.90;;;;;;4953134;29;20057;-31
2023/09/14 09:08:05;;;;;;;;;;;18.10;99.90;;;;;;4954581;28;19931;-31
2023/09/14 09:10:34;;;;;;;;;;;18.10;99.90;;;;;;4956477;29;19926;-31
2023/09/14 09:13:01;;;;;;;;;;;18.20;99.90;;;;;;4956182;29;19965;-31
2023/09/14 09:15:28;;;;;;;;;;;18.30;99.90;;;;;;4956975;29;20009;-31
2023/09/14 09:17:55;;;;;;;;;;;18.40;99.90;;;;;;4940408;29;19946;-31
2023/09/14 09:20:23;;;;;;;;;;;18.60;99.90;;;;;;4956267;29;19960;-31
2023/09/14 09:22:50;;;;;;;;;;;18.70;99.90;;;;;;4956307;29;19965;-31
2023/09/14 09:25:17;;;;;;;;;;;18.70;99.90;;;;;;4956263;29;19967;-31
2023/09/14 09:27:45;;;;;;;;;;;18.80;99.90;;;;;;4955871;29;19957;-32
2023/09/14 09:30:13;;;;;;;;;;;18.80;99.40;;;;;;4957135;29;19972;-31
2023/09/14 09:32:39;;;;;;;;;;;18.80;99.90;;;;;;4939782;29;20398;-32
2023/09/14 09:35:16;;;;;;;;;;;18.80;99.90;;;;;;4957155;29;19933;-31
2023/09/14 09:37:42;;;;;;;;;;;18.90;99.90;;;;;;4940218;29;20029;-32
2023/09/14 09:40:12;;;;;;;;;;;19.00;99.90;;;;;;4939085;29;19941;-31
2023/09/14 09:42:39;;;;;;;;;;;19.10;99.90;;;;;;4956006;29;20010;-32
2023/09/14 09:45:07;;;;;;;;;;;19.20;99.10;;;;;;4956805;29;19992;-32
2023/09/14 09:47:34;;;;;;;;;;;19.30;98.50;;;;;;4956795;29;19972;-31
2023/09/14 09:50:01;;;;;;;;;;;19.30;99.50;;;;;;4956683;29;19945;-33
2023/09/14 09:52:27;;;;;;;;;;;19.30;99.10;;;;;;4956857;29;20009;-32
2023/09/14 09:54:54;;;;;;;;;;;19.40;99.30;;;;;;4955390;29;19941;-32
2023/09/14 09:57:21;;;;;;;;;;;19.50;98.80;;;;;;4953540;29;19961;-32
2023/09/14 09:59:48;;;;;;;;;;;19.60;99.10;;;;;;4955208;29;19944;-32
2023/09/14 10:02:16;;;;;;;;;;;19.70;97.90;;;;;;4955401;29;20028;-32
2023/09/14 10:04:45;;;;;;;;;;;19.70;98.00;;;;;;4955775;29;19956;-32
2023/09/14 10:07:12;;;;;;;;;;;19.70;97.10;;;;;;4939313;29;20387;-34
2023/09/14 10:09:38;;;;;;;;;;;19.70;96.80;;;;;;4939159;29;20015;-33
2023/09/14 10:12:06;;;;;;;;;;;19.80;98.30;;;;;;4956131;28;19941;-31
2023/09/14 10:14:33;;;;;;;;;;;19.80;98.20;;;;;;4939060;29;19945;-31
2023/09/14 10:16:59;;;;;;;;;;;20.00;98.40;;;;;;4955384;29;20337;-31
2023/09/14 10:19:27;;;;;;;;;;;20.10;98.80;;;;;;4954980;28;19972;-31
2023/09/14 10:21:54;;;;;;;;;;;20.10;97.00;;;;;;4956088;29;19930;-32
2023/09/14 10:24:21;;;;;;;;;;;20.20;97.20;;;;;;4955292;29;19927;-31
2023/09/14 10:26:47;;;;;;;;;;;20.20;97.90;;;;;;4954936;29;19942;-32
2023/09/14 10:29:14;;;;;;;;;;;20.30;97.30;;;;;;4954322;29;20018;-32
2023/09/14 10:31:41;;;;;;;;;;;20.30;96.70;;;;;;4955835;29;19946;-33
2023/09/14 10:34:07;;;;;;;;;;;20.40;97.20;;;;;;4938005;29;20007;-32
2023/09/14 10:36:35;;;;;;;;;;;20.50;96.80;;;;;;4954799;29;19973;-32
2023/09/14 10:39:05;;;;;;;;;;;20.50;96.30;;;;;;4955697;29;19944;-32
2023/09/14 10:41:32;;;;;;;;;;;20.60;95.60;;;;;;4955864;29;19941;-31
2023/09/14 10:43:59;;;;;;;;;;;20.60;94.80;;;;;;4954657;29;20343;-31
2023/09/14 10:46:26;;;;;;;;;;;20.70;96.10;;;;;;4954645;29;19930;-32
2023/09/14 10:48:53;;;;;;;;;;;20.80;95.40;;;;;;4955772;29;19965;-31
2023/09/14 10:51:21;;;;;;;;;;;20.70;95.60;;;;;;4953305;28;19968;-31
2023/09/14 10:53:49;;;;;;;;;;;20.60;96.50;;;;;;4955592;29;19930;-31
2023/09/14 10:56:22;;;;;;;;;;;20.50;95.50;;;;;;4954477;29;19957;-32
2023/09/14 10:58:52;;;;;;;;;;;20.50;96.00;;;;;;4954835;29;19941;-32
2023/09/14 11:01:25;;;;;;;;;;;20.50;97.10;;;;;;4954337;29;19941;-32
2023/09/14 11:04:12;;;;;;;;;;;20.50;97.70;;;;;;4954467;29;20475;-32
2023/09/14 11:06:42;;;;;;;;;;;20.60;98.30;;;;;;4954527;29;19967;-32
2023/09/14 11:09:10;;;;;;;;;;;20.60;97.80;;;;;;4953321;29;19941;-32
2023/09/14 11:11:40;;;;;;;;;;;20.60;98.00;;;;;;4954385;29;19969;-32
2023/09/14 11:14:07;;;;;;;;;;;20.60;98.30;;;;;;4955532;29;20364;-32
2023/09/14 11:16:41;;;;;;;;;;;20.80;97.40;;;;;;4937923;29;20008;-31
2023/09/14 11:19:08;;;;;;;;;;;21.00;98.00;;;;;;4938185;29;19931;-31
2023/09/14 11:21:44;;;;;;;;;;;21.30;96.90;;;;;;4954950;29;19933;-31
2023/09/14 11:24:12;;;;;;;;;;;21.50;97.60;;;;;;4937240;29;20037;-31
2023/09/14 11:26:46;;;;;;;;;;;21.50;93.50;;;;;;4937540;29;20508;-31
2023/09/14 11:29:13;;;;;;;;;;;21.40;95.80;;;;;;4954923;29;19966;-31
2023/09/14 11:31:39;;;;;;;;;;;21.30;96.60;;;;;;4954428;28;19946;-31
2023/09/14 11:34:06;;;;;;;;;;;21.20;96.20;;;;;;4954817;29;19985;-31
2023/09/14 11:36:34;;;;;;;;;;;21.10;97.20;;;;;;4937681;29;19972;-34
2023/09/14 11:39:00;;;;;;;;;;;21.20;96.80;;;;;;4953690;29;19969;-31
2023/09/14 11:41:38;;;;;;;;;;;21.30;97.30;;;;;;4954185;29;20354;-31
2023/09/14 11:44:05;;;;;;;;;;;21.40;97.30;;;;;;4952852;29;19961;-33
2023/09/14 11:46:32;;;;;;;;;;;21.50;97.60;;;;;;4946889;29;20319;-32
2023/09/14 11:48:59;;;;;;;;;;;21.70;97.20;;;;;;4953242;29;19953;-31
2023/09/14 11:51:27;;;;;;;;;;;22.00;97.50;;;;;;4954637;29;20015;-32
2023/09/14 11:53:55;;;;;;;;;;;22.10;94.10;;;;;;4951390;29;20021;-31
2023/09/14 11:56:21;;;;;;;;;;;22.10;94.10;;;;;;4947337;29;19961;-32
2023/09/14 11:58:50;;;;;;;;;;;22.10;93.50;;;;;;4954419;29;20402;-33
2023/09/14 12:01:17;;;;;;;;;;;22.10;92.80;;;;;;4953102;29;19933;-32
2023/09/14 12:03:43;;;;;;;;;;;22.10;93.90;;;;;;4953103;29;20020;-32
2023/09/14 12:06:10;;;;;;;;;;;22.10;92.80;;;;;;4954453;29;19967;-32
2023/09/14 12:08:37;;;;;;;;;;;22.10;93.30;;;;;;4952308;28;19961;-32
2023/09/14 12:11:04;;;;;;;;;;;22.30;94.10;;;;;;4953780;29;20317;-33
2023/09/14 12:13:30;;;;;;;;;;;22.40;91.40;;;;;;4952706;29;19933;-32
2023/09/14 12:15:59;;;;;;;;;;;22.50;92.00;;;;;;4954170;29;19972;-31
2023/09/14 12:18:37;;;;;;;;;;;22.60;92.40;;;;;;4935479;29;20023;-32
2023/09/14 12:21:04;;;;;;;;;;;22.70;91.10;;;;;;4952192;28;19950;-31
2023/09/14 12:23:32;;;;;;;;;;;22.70;92.10;;;;;;4951435;29;19926;-33
2023/09/14 12:25:59;;;;;;;;;;;22.70;93.00;;;;;;4932239;29;19960;-31
2023/09/14 12:28:25;;;;;;;;;;;22.80;90.90;;;;;;4953020;29;19961;-31
2023/09/14 12:30:52;;;;;;;;;;;22.80;92.00;;;;;;4954757;28;19966;-31
2023/09/14 12:33:20;;;;;;;;;;;22.90;91.20;;;;;;4955307;28;19930;-31
2023/09/14 12:35:47;;;;;;;;;;;22.90;89.30;;;;;;4934298;29;20346;-32
2023/09/14 12:38:14;;;;;;;;;;;22.80;90.00;;;;;;4955016;28;20418;-32
2023/09/14 12:40:41;;;;;;;;;;;22.60;90.70;;;;;;4954053;29;20276;-32
2023/09/14 12:43:07;;;;;;;;;;;22.50;90.10;;;;;;4954615;28;20035;-32
2023/09/14 12:45:34;;;;;;;;;;;22.40;91.10;;;;;;4957810;29;19927;-32
2023/09/14 12:48:02;;;;;;;;;;;22.20;91.40;;;;;;4955767;29;19973;-33
2023/09/14 12:50:30;;;;;;;;;;;22.00;91.10;;;;;;4957602;29;20394;-33
2023/09/14 12:52:57;;;;;;;;;;;21.90;91.40;;;;;;4957102;29;20302;-32
2023/09/14 12:55:24;;;;;;;;;;;21.90;92.10;;;;;;4957372;28;19984;-34
2023/09/14 12:57:51;;;;;;;;;;;22.00;92.40;;;;;;4956796;28;20385;-34
2023/09/14 13:00:18;;;;;;;;;;;22.30;93.20;;;;;;4956587;29;19936;-31
2023/09/14 13:02:45;;;;;;;;;;;22.50;91.50;;;;;;4956544;29;19932;-31
2023/09/14 13:05:13;;;;;;;;;;;22.60;92.00;;;;;;4957263;28;19982;-32
2023/09/14 13:07:44;;;;;;;;;;;22.80;90.80;;;;;;4939355;29;19930;-32
2023/09/14 13:10:12;;;;;;;;;;;22.90;90.30;;;;;;4938943;28;20275;-32
2023/09/14 13:12:42;;;;;;;;;;;22.90;90.80;;;;;;4952895;29;19958;-32
2023/09/14 13:15:11;;;;;;;;;;;22.80;90.60;;;;;;4954651;29;20319;-32
2023/09/14 13:17:38;;;;;;;;;;;22.80;90.60;;;;;;4955782;29;19930;-32
2023/09/14 13:20:09;;;;;;;;;;;22.80;91.00;;;;;;4957212;29;19965;-35
2023/09/14 13:22:36;;;;;;;;;;;22.90;90.30;;;;;;4955545;29;19985;-32
2023/09/14 13:25:04;;;;;;;;;;;22.80;89.70;;;;;;4939188;29;19982;-32
2023/09/14 13:27:34;;;;;;;;;;;22.80;90.00;;;;;;4944566;29;20322;-32
2023/09/14 13:30:00;;;;;;;;;;;22.70;90.90;;;;;;4956107;29;20396;-34
2023/09/14 13:32:28;;;;;;;;;;;22.80;91.80;;;;;;4955354;28;19927;-32
2023/09/14 13:34:54;;;;;;;;;;;23.00;90.70;;;;;;4942761;29;19965;-31
2023/09/14 13:37:21;;;;;;;;;;;23.20;91.40;;;;;;4955536;29;19974;-32
2023/09/14 13:39:48;;;;;;;;;;;23.20;87.50;;;;;;4939661;29;19934;-31
2023/09/14 13:42:16;;;;;;;;;;;23.20;89.30;;;;;;4939622;29;19977;-31
2023/09/14 13:44:43;;;;;;;;;;;23.20;90.90;;;;;;4955529;29;20337;-31
2023/09/14 13:47:09;;;;;;;;;;;23.30;91.40;;;;;;4954979;29;19994;-32
2023/09/14 13:49:36;;;;;;;;;;;23.40;91.10;;;;;;4952898;29;19926;-32
2023/09/14 13:52:03;;;;;;;;;;;23.50;89.90;;;;;;4955249;28;20017;-33
2023/09/14 13:54:30;;;;;;;;;;;23.50;90.00;;;;;;4938071;29;20355;-33
2023/09/14 13:56:57;;;;;;;;;;;23.50;86.10;;;;;;4953689;28;20045;-33
2023/09/14 13:59:25;;;;;;;;;;;23.40;89.30;;;;;;4954831;28;19931;-33
2023/09/14 14:01:52;;;;;;;;;;;23.50;90.60;;;;;;4936887;29;19950;-31
2023/09/14 14:04:19;;;;;;;;;;;23.50;87.30;;;;;;4953784;28;19963;-33
2023/09/14 14:06:46;;;;;;;;;;;23.50;89.10;;;;;;4957180;28;19961;-32
2023/09/14 14:09:12;;;;;;;;;;;23.50;84.40;;;;;;4939026;29;19933;-32
2023/09/14 14:11:39;;;;;;;;;;;23.40;86.80;;;;;;4938746;29;19930;-32
2023/09/14 14:14:06;;;;;;;;;;;23.40;86.50;;;;;;4954101;28;20036;-33
2023/09/14 14:16:34;;;;;;;;;;;23.30;85.90;;;;;;4954157;28;19927;-33
2023/09/14 14:19:00;;;;;;;;;;;23.30;85.60;;;;;;4938482;29;19964;-32